sensor_id;sensor_type;location;lat;lon;timestamp;pressure;altitude;pressure_sealevel;temperature;humidity
12789;BME280;6458;42.710;23.192;2024-01-15T00:00:21;57554.78;;;-144.77;100.00
12789;BME280;6458;42.710;23.192;2024-01-15T00:02:50;57554.78;;;-144.77;100.00
12789;BME280;6458;42.710;23.192;2024-01-15T00:05:17;57554.78;;;-144.77;100.00
12789;BME280;6458;42.710;23.192;2024-01-15T00:07:42;57554.78;;;-144.77;100.00
12789;BME280;6458;42.710;23.192;2024-01-15T00:10:09;57554.78;;;-144.77;100.00
12789;BME280;6458;42.710;23.192;2024-01-15T00:12:36;57554.78;;;-144.77;100.00
12789;BME280;6458;42.710;23.192;2024-01-15T00:15:04;57554.78;;;-144.77;100.00
12789;BME280;6458;42.710;23.192;2024-01-15T00:17:31;57554.78;;;-144.77;100.00
12789;BME280;6458;42.710;23.192;2024-01-15T00:20:00;57554.78;;;-144.77;100.00
12789;BME280;6458;42.710;23.192;2024-01-15T00:22:27;57554.78;;;-144.77;100.00
12789;BME280;6458;42.710;23.192;2024-01-15T00:24:54;57554.78;;;-144.77;100.00
12789;BME280;6458;42.710;23.192;2024-01-15T00:27:21;57554.78;;;-144.77;100.00
12789;BME280;6458;42.710;23.192;2024-01-15T00:29:49;57554.78;;;-144.77;100.00
12789;BME280;6458;42.710;23.192;2024-01-15T00:32:17;57554.78;;;-144.77;100.00
12789;BME280;6458;42.710;23.192;2024-01-15T00:34:43;57554.78;;;-144.77;100.00
12789;BME280;6458;42.710;23.192;2024-01-15T00:37:12;57554.78;;;-144.77;100.00
12789;BME280;6458;42.710;23.192;2024-01-15T00:39:39;57554.78;;;-144.77;100.00
12789;BME280;6458;42.710;23.192;2024-01-15T00:42:06;57554.78;;;-144.77;100.00
12789;BME280;6458;42.710;23.192;2024-01-15T00:44:33;57554.78;;;-144.77;100.00
12789;BME280;6458;42.710;23.192;2024-01-15T00:47:00;57554.78;;;-144.77;100.00
12789;BME280;6458;42.710;23.192;2024-01-15T00:49:28;57554.78;;;-144.77;100.00
12789;BME280;6458;42.710;23.192;2024-01-15T00:51:55;57554.78;;;-144.77;100.00
12789;BME280;6458;42.710;23.192;2024-01-15T00:54:24;57554.78;;;-144.77;100.00
12789;BME280;6458;42.710;23.192;2024-01-15T00:56:51;57554.78;;;-144.77;100.00
12789;BME280;6458;42.710;23.192;2024-01-15T00:59:18;57554.78;;;-144.77;100.00
12789;BME280;6458;42.710;23.192;2024-01-15T01:01:46;57554.78;;;-144.77;100.00
12789;BME280;6458;42.710;23.192;2024-01-15T01:04:13;57554.78;;;-144.77;100.00
12789;BME280;6458;42.710;23.192;2024-01-15T01:06:40;57554.78;;;-144.77;100.00
12789;BME280;6458;42.710;23.192;2024-01-15T01:09:07;57554.78;;;-144.77;100.00
12789;BME280;6458;42.710;23.192;2024-01-15T01:11:36;57554.78;;;-144.77;100.00
12789;BME280;6458;42.710;23.192;2024-01-15T01:14:03;57554.78;;;-144.77;100.00
12789;BME280;6458;42.710;23.192;2024-01-15T01:16:30;57554.78;;;-144.77;100.00
12789;BME280;6458;42.710;23.192;2024-01-15T01:19:04;57554.78;;;-144.77;100.00
12789;BME280;6458;42.710;23.192;2024-01-15T01:21:31;57554.78;;;-144.77;100.00
12789;BME280;6458;42.710;23.192;2024-01-15T01:23:58;57554.78;;;-144.77;100.00
12789;BME280;6458;42.710;23.192;2024-01-15T01:26:25;57554.78;;;-144.77;100.00
12789;BME280;6458;42.710;23.192;2024-01-15T01:28:53;57554.78;;;-144.77;100.00
12789;BME280;6458;42.710;23.192;2024-01-15T01:31:20;57554.78;;;-144.77;100.00
12789;BME280;6458;42.710;23.192;2024-01-15T01:33:47;57554.78;;;-144.77;100.00
12789;BME280;6458;42.710;23.192;2024-01-15T01:36:14;57554.78;;;-144.77;100.00
12789;BME280;6458;42.710;23.192;2024-01-15T01:38:41;57554.78;;;-144.77;100.00
12789;BME280;6458;42.710;23.192;2024-01-15T01:41:07;57554.78;;;-144.77;100.00
12789;BME280;6458;42.710;23.192;2024-01-15T01:43:34;57554.78;;;-144.77;100.00
12789;BME280;6458;42.710;23.192;2024-01-15T01:46:03;57554.78;;;-144.77;100.00
12789;BME280;6458;42.710;23.192;2024-01-15T01:48:31;57554.78;;;-144.77;100.00
12789;BME280;6458;42.710;23.192;2024-01-15T01:51:00;57554.78;;;-144.77;100.00
12789;BME280;6458;42.710;23.192;2024-01-15T01:53:29;57554.78;;;-144.77;100.00
12789;BME280;6458;42.710;23.192;2024-01-15T01:55:57;57554.78;;;-144.77;100.00
12789;BME280;6458;42.710;23.192;2024-01-15T01:58:25;57554.78;;;-144.77;100.00
12789;BME280;6458;42.710;23.192;2024-01-15T02:00:53;57554.78;;;-144.77;100.00
12789;BME280;6458;42.710;23.192;2024-01-15T02:03:22;57554.78;;;-144.77;100.00
12789;BME280;6458;42.710;23.192;2024-01-15T02:05:49;57554.78;;;-144.77;100.00
12789;BME280;6458;42.710;23.192;2024-01-15T02:08:16;57554.78;;;-144.77;100.00
12789;BME280;6458;42.710;23.192;2024-01-15T02:10:43;57554.78;;;-144.77;100.00
12789;BME280;6458;42.710;23.192;2024-01-15T02:13:10;57554.78;;;-144.77;100.00
12789;BME280;6458;42.710;23.192;2024-01-15T02:15:38;57554.78;;;-144.77;100.00
12789;BME280;6458;42.710;23.192;2024-01-15T02:18:06;57554.78;;;-144.77;100.00
12789;BME280;6458;42.710;23.192;2024-01-15T02:20:34;57554.78;;;-144.77;100.00
12789;BME280;6458;42.710;23.192;2024-01-15T02:23:08;57554.78;;;-144.77;100.00
12789;BME280;6458;42.710;23.192;2024-01-15T02:25:37;57554.78;;;-144.77;100.00
12789;BME280;6458;42.710;23.192;2024-01-15T02:28:05;57554.78;;;-144.77;100.00
12789;BME280;6458;42.710;23.192;2024-01-15T02:30:34;57554.78;;;-144.77;100.00
12789;BME280;6458;42.710;23.192;2024-01-15T02:33:04;57554.78;;;-144.77;100.00
12789;BME280;6458;42.710;23.192;2024-01-15T02:35:31;57554.78;;;-144.77;100.00
12789;BME280;6458;42.710;23.192;2024-01-15T02:37:58;57554.78;;;-144.77;100.00
12789;BME280;6458;42.710;23.192;2024-01-15T02:40:27;57554.78;;;-144.77;100.00
12789;BME280;6458;42.710;23.192;2024-01-15T02:42:54;57554.78;;;-144.77;100.00
12789;BME280;6458;42.710;23.192;2024-01-15T02:45:22;57554.78;;;-144.77;100.00
12789;BME280;6458;42.710;23.192;2024-01-15T02:47:48;57554.78;;;-144.77;100.00
12789;BME280;6458;42.710;23.192;2024-01-15T02:50:16;57554.78;;;-144.77;100.00
12789;BME280;6458;42.710;23.192;2024-01-15T02:52:43;57554.78;;;-144.77;100.00
12789;BME280;6458;42.710;23.192;2024-01-15T02:55:10;57554.78;;;-144.77;100.00
12789;BME280;6458;42.710;23.192;2024-01-15T02:57:38;57554.78;;;-144.77;100.00
12789;BME280;6458;42.710;23.192;2024-01-15T03:00:06;57554.78;;;-144.77;100.00
12789;BME280;6458;42.710;23.192;2024-01-15T03:02:36;57554.78;;;-144.77;100.00
12789;BME280;6458;42.710;23.192;2024-01-15T03:05:05;57554.78;;;-144.77;100.00
12789;BME280;6458;42.710;23.192;2024-01-15T03:07:32;57554.78;;;-144.77;100.00
12789;BME280;6458;42.710;23.192;2024-01-15T03:09:59;57554.78;;;-144.77;100.00
12789;BME280;6458;42.710;23.192;2024-01-15T03:12:26;57554.78;;;-144.77;100.00
12789;BME280;6458;42.710;23.192;2024-01-15T03:14:54;57554.78;;;-144.77;100.00
12789;BME280;6458;42.710;23.192;2024-01-15T03:17:21;57554.78;;;-144.77;100.00
12789;BME280;6458;42.710;23.192;2024-01-15T03:19:48;57554.78;;;-144.77;100.00
12789;BME280;6458;42.710;23.192;2024-01-15T03:22:16;57554.78;;;-144.77;100.00
12789;BME280;6458;42.710;23.192;2024-01-15T03:24:43;57554.78;;;-144.77;100.00
12789;BME280;6458;42.710;23.192;2024-01-15T03:27:10;57554.78;;;-144.77;100.00
12789;BME280;6458;42.710;23.192;2024-01-15T03:29:37;57554.78;;;-144.77;100.00
12789;BME280;6458;42.710;23.192;2024-01-15T03:32:06;57554.78;;;-144.77;100.00
12789;BME280;6458;42.710;23.192;2024-01-15T03:34:33;57554.78;;;-144.77;100.00
12789;BME280;6458;42.710;23.192;2024-01-15T03:37:00;57554.78;;;-144.77;100.00
12789;BME280;6458;42.710;23.192;2024-01-15T03:39:27;57554.78;;;-144.77;100.00
12789;BME280;6458;42.710;23.192;2024-01-15T03:41:54;57554.78;;;-144.77;100.00
12789;BME280;6458;42.710;23.192;2024-01-15T03:44:22;57554.78;;;-144.77;100.00
12789;BME280;6458;42.710;23.192;2024-01-15T03:49:37;93089.97;;;-1.58;98.03
12789;BME280;6458;42.710;23.192;2024-01-15T03:52:05;93090.91;;;-1.64;98.20
12789;BME280;6458;42.710;23.192;2024-01-15T03:54:32;93073.13;;;-1.64;97.34
12789;BME280;6458;42.710;23.192;2024-01-15T03:56:59;93079.81;;;-1.56;96.63
12789;BME280;6458;42.710;23.192;2024-01-15T03:59:26;93077.19;;;-1.50;96.15
12789;BME280;6458;42.710;23.192;2024-01-15T04:01:53;93088.38;;;-1.64;95.62
12789;BME280;6458;42.710;23.192;2024-01-15T04:04:20;93077.41;;;-1.69;96.28
12789;BME280;6458;42.710;23.192;2024-01-15T04:06:49;93074.00;;;-1.68;96.06
12789;BME280;6458;42.710;23.192;2024-01-15T04:09:16;93068.13;;;-1.70;95.86
12789;BME280;6458;42.710;23.192;2024-01-15T04:11:43;93087.63;;;-1.72;96.36
12789;BME280;6458;42.710;23.192;2024-01-15T04:14:10;93077.53;;;-1.76;96.72
12789;BME280;6458;42.710;23.192;2024-01-15T04:16:37;93067.28;;;-1.72;97.69
12789;BME280;6458;42.710;23.192;2024-01-15T04:19:04;93079.00;;;-1.60;97.79
12789;BME280;6458;42.710;23.192;2024-01-15T04:21:31;93067.06;;;-1.55;94.83
12789;BME280;6458;42.710;23.192;2024-01-15T04:24:00;93066.19;;;-1.52;94.44
12789;BME280;6458;42.710;23.192;2024-01-15T04:26:27;93052.63;;;-1.53;95.08
12789;BME280;6458;42.710;23.192;2024-01-15T04:28:54;93057.72;;;-1.51;94.43
12789;BME280;6458;42.710;23.192;2024-01-15T04:31:22;93068.81;;;-1.58;94.36
12789;BME280;6458;42.710;23.192;2024-01-15T04:33:50;93059.59;;;-1.66;94.63
12789;BME280;6458;42.710;23.192;2024-01-15T04:36:17;93066.41;;;-1.71;94.62
12789;BME280;6458;42.710;23.192;2024-01-15T04:38:44;93077.66;;;-1.85;95.40
12789;BME280;6458;42.710;23.192;2024-01-15T04:41:13;93076.16;;;-2.05;95.70
12789;BME280;6458;42.710;23.192;2024-01-15T04:43:40;93070.25;;;-2.04;96.47
12789;BME280;6458;42.710;23.192;2024-01-15T04:46:36;93069.06;;;-2.52;98.66
12789;BME280;6458;42.710;23.192;2024-01-15T04:49:32;93069.22;;;-2.65;100.00
12789;BME280;6458;42.710;23.192;2024-01-15T04:51:59;93062.41;;;-2.63;100.00
12789;BME280;6458;42.710;23.192;2024-01-15T04:54:26;93052.31;;;-2.67;100.00
12789;BME280;6458;42.710;23.192;2024-01-15T04:56:54;93042.16;;;-2.69;100.00
12789;BME280;6458;42.710;23.192;2024-01-15T04:59:24;93054.88;;;-2.70;100.00
12789;BME280;6458;42.710;23.192;2024-01-15T05:01:51;93053.13;;;-2.64;100.00
12789;BME280;6458;42.710;23.192;2024-01-15T05:04:17;93049.00;;;-2.74;100.00
12789;BME280;6458;42.710;23.192;2024-01-15T05:06:44;93057.56;;;-2.90;100.00
12789;BME280;6458;42.710;23.192;2024-01-15T05:09:11;93045.84;;;-3.04;100.00
12789;BME280;6458;42.710;23.192;2024-01-15T05:11:39;93050.09;;;-3.03;100.00
12789;BME280;6458;42.710;23.192;2024-01-15T05:14:08;93044.88;;;-2.90;100.00
12789;BME280;6458;42.710;23.192;2024-01-15T05:16:38;93047.31;;;-2.78;100.00
12789;BME280;6458;42.710;23.192;2024-01-15T05:19:07;93050.03;;;-2.98;100.00
12789;BME280;6458;42.710;23.192;2024-01-15T05:21:34;93059.28;;;-2.89;100.00
12789;BME280;6458;42.710;23.192;2024-01-15T05:24:01;93056.69;;;-2.85;100.00
12789;BME280;6458;42.710;23.192;2024-01-15T05:26:28;93056.63;;;-2.77;100.00
12789;BME280;6458;42.710;23.192;2024-01-15T05:28:55;93043.03;;;-2.74;100.00
12789;BME280;6458;42.710;23.192;2024-01-15T05:31:24;93044.66;;;-2.64;100.00
12789;BME280;6458;42.710;23.192;2024-01-15T05:33:51;93034.53;;;-2.67;100.00
12789;BME280;6458;42.710;23.192;2024-01-15T05:36:18;93044.03;;;-2.86;100.00
12789;BME280;6458;42.710;23.192;2024-01-15T05:38:45;93031.41;;;-2.94;100.00
12789;BME280;6458;42.710;23.192;2024-01-15T05:41:12;93020.28;;;-2.79;100.00
12789;BME280;6458;42.710;23.192;2024-01-15T05:43:41;93009.22;;;-2.75;100.00
12789;BME280;6458;42.710;23.192;2024-01-15T05:46:09;93012.63;;;-2.76;100.00
12789;BME280;6458;42.710;23.192;2024-01-15T05:48:37;93017.19;;;-3.12;100.00
12789;BME280;6458;42.710;23.192;2024-01-15T05:51:04;93024.16;;;-3.35;100.00
12789;BME280;6458;42.710;23.192;2024-01-15T05:53:31;93030.84;;;-3.27;100.00
12789;BME280;6458;42.710;23.192;2024-01-15T05:55:58;93038.41;;;-3.22;100.00
12789;BME280;6458;42.710;23.192;2024-01-15T05:58:26;93034.13;;;-3.14;100.00
12789;BME280;6458;42.710;23.192;2024-01-15T06:00:53;93032.41;;;-3.09;100.00
12789;BME280;6458;42.710;23.192;2024-01-15T06:03:20;93033.16;;;-2.99;100.00
12789;BME280;6458;42.710;23.192;2024-01-15T06:05:49;93033.00;;;-2.85;100.00
12789;BME280;6458;42.710;23.192;2024-01-15T06:08:18;93030.34;;;-2.73;100.00
12789;BME280;6458;42.710;23.192;2024-01-15T06:10:48;93020.09;;;-2.61;100.00
12789;BME280;6458;42.710;23.192;2024-01-15T06:13:15;93025.81;;;-2.43;100.00
12789;BME280;6458;42.710;23.192;2024-01-15T06:15:42;93007.94;;;-2.34;100.00
12789;BME280;6458;42.710;23.192;2024-01-15T06:18:09;93001.75;;;-2.13;100.00
12789;BME280;6458;42.710;23.192;2024-01-15T06:20:36;93010.94;;;-2.01;100.00
12789;BME280;6458;42.710;23.192;2024-01-15T06:23:05;93020.56;;;-1.65;100.00
12789;BME280;6458;42.710;23.192;2024-01-15T06:25:32;93013.59;;;-1.50;100.00
12789;BME280;6458;42.710;23.192;2024-01-15T06:27:59;93017.59;;;-1.34;100.00
12789;BME280;6458;42.710;23.192;2024-01-15T06:30:26;93022.50;;;-1.22;98.56
12789;BME280;6458;42.710;23.192;2024-01-15T06:32:58;93019.34;;;-1.37;95.41
12789;BME280;6458;42.710;23.192;2024-01-15T06:35:25;93019.81;;;-1.12;95.45
12789;BME280;6458;42.710;23.192;2024-01-15T06:37:52;93014.16;;;-0.79;96.04
12789;BME280;6458;42.710;23.192;2024-01-15T06:40:20;93004.50;;;-0.61;93.87
12789;BME280;6458;42.710;23.192;2024-01-15T06:42:47;93011.03;;;-0.47;91.35
12789;BME280;6458;42.710;23.192;2024-01-15T06:45:14;93003.03;;;-0.28;91.02
12789;BME280;6458;42.710;23.192;2024-01-15T06:47:41;93011.34;;;-0.18;87.44
12789;BME280;6458;42.710;23.192;2024-01-15T06:50:08;93027.22;;;-0.06;85.86
12789;BME280;6458;42.710;23.192;2024-01-15T06:52:35;93037.06;;;0.11;86.28
12789;BME280;6458;42.710;23.192;2024-01-15T06:55:03;93023.56;;;0.08;83.35
12789;BME280;6458;42.710;23.192;2024-01-15T06:57:33;93041.28;;;0.12;84.04
12789;BME280;6458;42.710;23.192;2024-01-15T07:00:31;93029.25;;;0.19;84.84
12789;BME280;6458;42.710;23.192;2024-01-15T07:02:59;93027.38;;;0.29;83.94
12789;BME280;6458;42.710;23.192;2024-01-15T07:05:26;93025.75;;;0.25;83.17
12789;BME280;6458;42.710;23.192;2024-01-15T07:07:55;93032.03;;;0.10;83.70
12789;BME280;6458;42.710;23.192;2024-01-15T07:10:23;93025.28;;;0.06;84.77
12789;BME280;6458;42.710;23.192;2024-01-15T07:12:51;93040.09;;;-0.13;87.00
12789;BME280;6458;42.710;23.192;2024-01-15T07:15:19;93034.16;;;-0.12;87.90
12789;BME280;6458;42.710;23.192;2024-01-15T07:17:45;93035.72;;;-0.07;87.70
12789;BME280;6458;42.710;23.192;2024-01-15T07:20:12;93032.03;;;0.10;87.35
12789;BME280;6458;42.710;23.192;2024-01-15T07:22:39;93034.22;;;0.27;86.88
12789;BME280;6458;42.710;23.192;2024-01-15T07:25:06;93024.84;;;0.29;85.23
12789;BME280;6458;42.710;23.192;2024-01-15T07:27:33;93022.53;;;0.16;86.53
12789;BME280;6458;42.710;23.192;2024-01-15T07:30:02;93012.16;;;0.26;86.83
12789;BME280;6458;42.710;23.192;2024-01-15T07:32:31;93019.78;;;0.26;84.63
12789;BME280;6458;42.710;23.192;2024-01-15T07:34:58;93020.44;;;0.34;85.02
12789;BME280;6458;42.710;23.192;2024-01-15T07:37:25;93021.00;;;0.08;86.07
12789;BME280;6458;42.710;23.192;2024-01-15T07:39:52;93023.31;;;0.20;88.17
12789;BME280;6458;42.710;23.192;2024-01-15T07:42:19;93016.38;;;0.25;88.58
12789;BME280;6458;42.710;23.192;2024-01-15T07:44:46;93027.44;;;0.26;89.67
12789;BME280;6458;42.710;23.192;2024-01-15T07:47:14;93018.88;;;0.28;86.41
12789;BME280;6458;42.710;23.192;2024-01-15T07:49:49;93011.97;;;0.33;87.27
12789;BME280;6458;42.710;23.192;2024-01-15T07:52:16;92981.97;;;0.44;84.68
12789;BME280;6458;42.710;23.192;2024-01-15T07:54:48;92990.31;;;0.51;83.96
12789;BME280;6458;42.710;23.192;2024-01-15T07:57:16;92984.31;;;0.54;87.98
12789;BME280;6458;42.710;23.192;2024-01-15T07:59:44;92998.25;;;0.39;86.66
12789;BME280;6458;42.710;23.192;2024-01-15T08:02:11;93010.91;;;0.81;86.72
12789;BME280;6458;42.710;23.192;2024-01-15T08:04:40;93022.41;;;0.97;80.90
12789;BME280;6458;42.710;23.192;2024-01-15T08:07:10;93018.19;;;0.96;79.88
12789;BME280;6458;42.710;23.192;2024-01-15T08:09:36;93009.66;;;1.31;80.87
12789;BME280;6458;42.710;23.192;2024-01-15T08:12:06;93012.91;;;1.38;80.22
12789;BME280;6458;42.710;23.192;2024-01-15T08:14:38;93003.19;;;1.51;79.86
12789;BME280;6458;42.710;23.192;2024-01-15T08:17:05;93028.78;;;1.82;76.84
12789;BME280;6458;42.710;23.192;2024-01-15T08:19:32;93018.28;;;1.60;78.68
12789;BME280;6458;42.710;23.192;2024-01-15T08:22:00;93024.91;;;1.00;83.14
12789;BME280;6458;42.710;23.192;2024-01-15T08:24:27;93018.50;;;1.18;83.87
12789;BME280;6458;42.710;23.192;2024-01-15T08:26:57;93014.97;;;1.24;84.50
12789;BME280;6458;42.710;23.192;2024-01-15T08:29:24;93022.88;;;1.47;84.79
12789;BME280;6458;42.710;23.192;2024-01-15T08:31:51;93004.06;;;1.82;81.95
12789;BME280;6458;42.710;23.192;2024-01-15T08:34:18;93002.78;;;1.99;80.23
12789;BME280;6458;42.710;23.192;2024-01-15T08:36:45;92994.44;;;2.22;78.40
12789;BME280;6458;42.710;23.192;2024-01-15T08:39:13;92998.84;;;2.17;77.15
12789;BME280;6458;42.710;23.192;2024-01-15T08:41:40;92999.44;;;2.54;76.04
12789;BME280;6458;42.710;23.192;2024-01-15T08:44:07;93012.72;;;2.67;72.40
12789;BME280;6458;42.710;23.192;2024-01-15T08:46:34;93011.25;;;2.87;72.76
12789;BME280;6458;42.710;23.192;2024-01-15T08:49:01;93007.03;;;2.86;73.72
12789;BME280;6458;42.710;23.192;2024-01-15T08:51:28;92993.06;;;2.68;73.02
12789;BME280;6458;42.710;23.192;2024-01-15T08:53:56;92992.38;;;2.63;75.50
12789;BME280;6458;42.710;23.192;2024-01-15T08:56:25;92985.19;;;2.74;76.40
12789;BME280;6458;42.710;23.192;2024-01-15T08:59:12;92992.06;;;3.00;75.01
12789;BME280;6458;42.710;23.192;2024-01-15T09:01:50;92986.69;;;3.59;72.61
12789;BME280;6458;42.710;23.192;2024-01-15T09:04:32;92962.63;;;3.63;69.51
12789;BME280;6458;42.710;23.192;2024-01-15T09:07:14;92958.03;;;3.48;69.77
12789;BME280;6458;42.710;23.192;2024-01-15T09:09:57;92945.47;;;4.12;68.22
12789;BME280;6458;42.710;23.192;2024-01-15T09:12:30;92933.59;;;4.77;64.10
12789;BME280;6458;42.710;23.192;2024-01-15T09:14:59;92931.44;;;5.09;58.99
12789;BME280;6458;42.710;23.192;2024-01-15T09:17:29;92908.09;;;5.75;56.14
12789;BME280;6458;42.710;23.192;2024-01-15T09:20:24;92911.25;;;5.81;59.89
12789;BME280;6458;42.710;23.192;2024-01-15T09:22:57;92899.50;;;6.15;57.11
12789;BME280;6458;42.710;23.192;2024-01-15T09:25:42;92901.69;;;6.23;56.90
12789;BME280;6458;42.710;23.192;2024-01-15T09:28:32;92895.59;;;5.86;56.09
12789;BME280;6458;42.710;23.192;2024-01-15T09:31:08;92906.06;;;5.42;58.57
12789;BME280;6458;42.710;23.192;2024-01-15T09:33:49;92886.91;;;4.66;61.17
12789;BME280;6458;42.710;23.192;2024-01-15T09:36:27;92897.19;;;4.66;64.46
12789;BME280;6458;42.710;23.192;2024-01-15T09:38:57;92891.81;;;4.50;62.31
12789;BME280;6458;42.710;23.192;2024-01-15T09:41:24;92877.22;;;4.30;61.97
12789;BME280;6458;42.710;23.192;2024-01-15T09:44:00;92870.25;;;3.88;65.32
12789;BME280;6458;42.710;23.192;2024-01-15T09:46:28;92870.13;;;3.91;67.66
12789;BME280;6458;42.710;23.192;2024-01-15T09:48:55;92841.81;;;3.47;68.88
12789;BME280;6458;42.710;23.192;2024-01-15T09:51:22;92847.72;;;3.49;69.35
12789;BME280;6458;42.710;23.192;2024-01-15T09:57:14;92860.88;;;3.64;68.98
12789;BME280;6458;42.710;23.192;2024-01-15T09:59:52;92871.34;;;3.81;70.10
12789;BME280;6458;42.710;23.192;2024-01-15T10:05:44;92843.88;;;3.38;74.86
12789;BME280;6458;42.710;23.192;2024-01-15T10:08:14;92847.50;;;3.32;77.47
12789;BME280;6458;42.710;23.192;2024-01-15T10:10:44;92823.22;;;2.94;78.68
12789;BME280;6458;42.710;23.192;2024-01-15T10:13:12;92833.97;;;2.53;81.23
12789;BME280;6458;42.710;23.192;2024-01-15T10:15:41;92829.78;;;2.24;83.65
12789;BME280;6458;42.710;23.192;2024-01-15T10:18:30;92834.75;;;2.29;85.40
12789;BME280;6458;42.710;23.192;2024-01-15T10:21:00;92820.38;;;2.25;82.25
12789;BME280;6458;42.710;23.192;2024-01-15T10:23:29;92815.69;;;2.11;81.78
12789;BME280;6458;42.710;23.192;2024-01-15T10:26:16;92821.56;;;2.15;83.74
12789;BME280;6458;42.710;23.192;2024-01-15T10:28:43;92821.75;;;2.62;83.19
12789;BME280;6458;42.710;23.192;2024-01-15T10:31:14;92816.91;;;3.02;78.97
12789;BME280;6458;42.710;23.192;2024-01-15T10:33:41;92797.44;;;2.73;78.30
12789;BME280;6458;42.710;23.192;2024-01-15T10:36:09;92791.22;;;2.81;79.66
12789;BME280;6458;42.710;23.192;2024-01-15T10:38:37;92815.63;;;2.39;76.48
12789;BME280;6458;42.710;23.192;2024-01-15T10:41:04;92812.97;;;2.69;76.72
12789;BME280;6458;42.710;23.192;2024-01-15T10:43:31;92797.44;;;2.22;74.74
12789;BME280;6458;42.710;23.192;2024-01-15T10:45:59;92780.13;;;2.30;79.45
12789;BME280;6458;42.710;23.192;2024-01-15T10:48:28;92778.84;;;2.43;77.74
12789;BME280;6458;42.710;23.192;2024-01-15T10:50:57;92783.91;;;2.70;79.28
12789;BME280;6458;42.710;23.192;2024-01-15T10:53:24;92781.31;;;2.71;78.43
12789;BME280;6458;42.710;23.192;2024-01-15T10:55:52;92797.50;;;2.97;79.96
12789;BME280;6458;42.710;23.192;2024-01-15T10:58:20;92777.16;;;2.92;77.95
12789;BME280;6458;42.710;23.192;2024-01-15T11:00:49;92798.91;;;2.81;79.73
12789;BME280;6458;42.710;23.192;2024-01-15T11:03:16;92768.81;;;3.11;80.13
12789;BME280;6458;42.710;23.192;2024-01-15T11:05:48;92762.06;;;3.08;80.90
12789;BME280;6458;42.710;23.192;2024-01-15T11:08:17;92763.28;;;3.21;78.56
12789;BME280;6458;42.710;23.192;2024-01-15T11:10:45;92743.97;;;3.36;79.25
12789;BME280;6458;42.710;23.192;2024-01-15T11:13:15;92741.75;;;3.51;77.72
12789;BME280;6458;42.710;23.192;2024-01-15T11:15:55;92763.34;;;3.67;76.34
12789;BME280;6458;42.710;23.192;2024-01-15T11:18:22;92751.66;;;3.82;72.29
12789;BME280;6458;42.710;23.192;2024-01-15T11:23:58;92728.91;;;3.94;64.52
12789;BME280;6458;42.710;23.192;2024-01-15T11:26:33;92738.16;;;3.99;65.79
12789;BME280;6458;42.710;23.192;2024-01-15T11:29:01;92724.59;;;4.17;64.30
12789;BME280;6458;42.710;23.192;2024-01-15T11:31:29;92721.72;;;3.82;64.07
12789;BME280;6458;42.710;23.192;2024-01-15T11:33:56;92731.84;;;3.85;66.54
12789;BME280;6458;42.710;23.192;2024-01-15T11:39:42;92727.16;;;4.78;63.93
12789;BME280;6458;42.710;23.192;2024-01-15T11:42:11;92732.69;;;4.90;63.14
12789;BME280;6458;42.710;23.192;2024-01-15T11:44:38;92729.53;;;5.22;61.76
12789;BME280;6458;42.710;23.192;2024-01-15T11:47:06;92700.78;;;4.75;61.14
12789;BME280;6458;42.710;23.192;2024-01-15T11:49:59;92704.94;;;4.57;64.06
12789;BME280;6458;42.710;23.192;2024-01-15T11:52:32;92700.94;;;4.91;62.08
12789;BME280;6458;42.710;23.192;2024-01-15T11:55:18;92713.13;;;5.06;60.90
12789;BME280;6458;42.710;23.192;2024-01-15T11:57:50;92703.38;;;4.94;61.25
12789;BME280;6458;42.710;23.192;2024-01-15T12:00:20;92715.44;;;4.92;63.13
12789;BME280;6458;42.710;23.192;2024-01-15T12:02:48;92710.03;;;4.98;64.22
12789;BME280;6458;42.710;23.192;2024-01-15T12:05:20;92701.91;;;4.88;64.50
12789;BME280;6458;42.710;23.192;2024-01-15T12:07:48;92705.03;;;4.95;64.95
12789;BME280;6458;42.710;23.192;2024-01-15T12:10:18;92688.63;;;4.78;65.34
12789;BME280;6458;42.710;23.192;2024-01-15T12:12:57;92696.75;;;4.88;67.54
12789;BME280;6458;42.710;23.192;2024-01-15T12:15:27;92696.91;;;5.04;67.88
12789;BME280;6458;42.710;23.192;2024-01-15T12:17:55;92700.28;;;5.25;65.02
12789;BME280;6458;42.710;23.192;2024-01-15T12:20:26;92692.78;;;5.20;63.65
12789;BME280;6458;42.710;23.192;2024-01-15T12:22:54;92679.34;;;5.32;63.77
12789;BME280;6458;42.710;23.192;2024-01-15T12:25:25;92677.28;;;5.41;63.34
12789;BME280;6458;42.710;23.192;2024-01-15T12:27:56;92682.78;;;5.69;63.09
12789;BME280;6458;42.710;23.192;2024-01-15T12:30:23;92667.94;;;5.57;61.36
12789;BME280;6458;42.710;23.192;2024-01-15T12:32:50;92660.69;;;5.65;62.93
12789;BME280;6458;42.710;23.192;2024-01-15T12:35:23;92663.91;;;5.51;62.30
12789;BME280;6458;42.710;23.192;2024-01-15T12:37:51;92658.34;;;5.42;63.69
12789;BME280;6458;42.710;23.192;2024-01-15T12:40:19;92649.88;;;5.58;64.78
12789;BME280;6458;42.710;23.192;2024-01-15T12:42:49;92644.25;;;5.31;69.04
12789;BME280;6458;42.710;23.192;2024-01-15T12:45:16;92663.72;;;5.37;69.29
12789;BME280;6458;42.710;23.192;2024-01-15T12:47:44;92651.56;;;5.03;66.66
12789;BME280;6458;42.710;23.192;2024-01-15T12:50:12;92650.53;;;5.07;65.61
12789;BME280;6458;42.710;23.192;2024-01-15T12:52:40;92660.50;;;4.75;68.88
12789;BME280;6458;42.710;23.192;2024-01-15T12:55:08;92644.94;;;4.78;68.86
12789;BME280;6458;42.710;23.192;2024-01-15T12:57:36;92646.47;;;4.63;70.22
12789;BME280;6458;42.710;23.192;2024-01-15T13:00:05;92651.19;;;4.33;72.31
12789;BME280;6458;42.710;23.192;2024-01-15T13:02:39;92664.34;;;4.46;73.15
12789;BME280;6458;42.710;23.192;2024-01-15T13:05:12;92640.44;;;4.64;70.85
12789;BME280;6458;42.710;23.192;2024-01-15T13:07:39;92652.19;;;4.70;71.60
12789;BME280;6458;42.710;23.192;2024-01-15T13:10:09;92658.47;;;4.63;70.67
12789;BME280;6458;42.710;23.192;2024-01-15T13:12:37;92635.13;;;4.49;69.05
12789;BME280;6458;42.710;23.192;2024-01-15T13:15:06;92660.94;;;4.25;72.13
12789;BME280;6458;42.710;23.192;2024-01-15T13:17:37;92635.13;;;4.49;70.35
12789;BME280;6458;42.710;23.192;2024-01-15T13:20:04;92633.59;;;4.45;68.37